Terminal Aerodrome Forecast
Issued by NWS

Home | Current Version | Previous Version | Text Only | Print | Product List | Glossary Off
Versions: 1 2 3 4 5 6 7 8 9 10 11 12 13 14 15 16 17 18 19 20 21

000
FTUS42 KMHX 231700 RRA
TAFISO
TAF
KISO 231751Z 2318/2418 23007KT P6SM VCTS SCT025 BKN035CB
     FM232300 20004KT P6SM SCT040
     FM241500 24008KT P6SM VCTS BKN035CB
      AMD LTD TO CLD VIS AND WIND=

USA.gov is the U.S. government's official web portal to all federal, state and local government web resources and services.